createdAt,value
2019-05-09T00:01:08.135Z,64.20
2019-05-09T00:06:10.863Z,64.30
2019-05-09T00:11:14.637Z,64.60
2019-05-09T00:16:17.779Z,64.10
2019-05-09T00:21:20.428Z,64.60
2019-05-09T00:26:23.643Z,64.30
2019-05-09T00:31:26.386Z,64.80
2019-05-09T00:36:29.114Z,64.30
2019-05-09T00:41:33.037Z,64.50
2019-05-09T00:46:36.131Z,64.00
2019-05-09T00:51:38.791Z,64.30
2019-05-09T00:56:43.457Z,64.30
2019-05-09T01:01:45.817Z,64.70
2019-05-09T01:06:48.541Z,64.60
2019-05-09T01:11:53.238Z,64.60
2019-05-09T01:16:55.643Z,64.80
2019-05-09T01:21:58.594Z,64.80
2019-05-09T01:27:03.433Z,64.60
2019-05-09T01:32:05.606Z,64.50
2019-05-09T01:37:08.260Z,64.10
2019-05-09T01:42:13.923Z,64.80
2019-05-09T01:47:16.989Z,65.10
2019-05-09T01:52:19.628Z,64.70
2019-05-09T01:57:23.253Z,64.60
2019-05-09T02:02:26.309Z,64.70
2019-05-09T02:07:28.967Z,64.80
2019-05-09T02:12:33.793Z,64.30
2019-05-09T02:17:35.992Z,64.20
2019-05-09T02:22:38.648Z,64.90
2019-05-09T02:27:43.509Z,64.20
2019-05-09T02:32:45.688Z,64.70
2019-05-09T02:37:49.761Z,64.40
2019-05-09T02:42:52.900Z,64.70
2019-05-09T02:47:58.799Z,65.00
2019-05-09T02:53:00.391Z,64.90
2019-05-09T02:58:03.135Z,65.20
2019-05-09T03:03:08.952Z,65.20
2019-05-09T03:08:10.237Z,65.40
2019-05-09T03:13:13.280Z,65.40
2019-05-09T03:18:18.423Z,65.70
2019-05-09T03:23:20.397Z,66.10
2019-05-09T03:28:23.122Z,66.20
2019-05-09T03:33:28.859Z,66.30
2019-05-09T03:38:30.310Z,66.50
2019-05-09T03:43:32.958Z,66.70
2019-05-09T03:48:37.405Z,67.10
2019-05-09T03:53:40.070Z,67.10
2019-05-09T03:58:42.722Z,67.40
2019-05-09T04:03:45.391Z,67.30
2019-05-09T04:08:48.249Z,67.40
2019-05-09T04:13:51.080Z,67.50
2019-05-09T04:18:53.742Z,67.80
2019-05-09T04:23:58.283Z,67.70
2019-05-09T04:29:00.789Z,67.70
2019-05-09T04:34:03.449Z,67.50
2019-05-09T04:39:12.591Z,67.60
2019-05-09T04:44:32.637Z,67.80
2019-05-09T04:49:41.065Z,67.60
2019-05-09T04:54:40.030Z,67.30
2019-05-09T04:59:42.699Z,67.50
2019-05-09T05:04:47.328Z,66.90
2019-05-09T05:09:49.756Z,66.80
2019-05-09T05:14:52.479Z,66.80
2019-05-09T05:20:14.543Z,66.80
2019-05-09T05:25:17.838Z,66.70
2019-05-09T05:30:20.655Z,66.50
2019-05-09T05:35:23.327Z,66.60
2019-05-09T05:40:31.914Z,66.30
2019-05-09T05:45:30.421Z,66.10
2019-05-09T05:50:33.147Z,66.30
2019-05-09T05:55:37.924Z,66.20
2019-05-09T06:00:40.283Z,65.80
2019-05-09T06:05:43.021Z,65.60
2019-05-09T06:10:48.177Z,65.90
2019-05-09T06:15:50.098Z,65.60
2019-05-09T06:20:52.847Z,65.90
2019-05-09T06:25:55.510Z,65.40
2019-05-09T06:30:58.610Z,64.60
2019-05-09T06:36:01.449Z,64.10
2019-05-09T06:41:04.181Z,64.00
2019-05-09T06:46:08.139Z,64.30
2019-05-09T06:51:11.004Z,63.60
2019-05-09T06:56:14.098Z,63.20
2019-05-09T07:01:18.253Z,62.80
2019-05-09T07:06:21.204Z,62.70
2019-05-09T07:11:23.934Z,62.40
2019-05-09T07:16:27.681Z,62.00
2019-05-09T07:21:30.465Z,61.80
2019-05-09T07:26:33.131Z,61.30
2019-05-09T07:31:37.826Z,61.40
2019-05-09T07:36:40.205Z,60.50
2019-05-09T07:41:42.851Z,60.10
2019-05-09T07:46:47.422Z,59.80
2019-05-09T07:51:49.959Z,59.60
2019-05-09T07:56:52.920Z,58.90
2019-05-09T08:01:58.205Z,58.40
2019-05-09T08:07:00.408Z,59.10
2019-05-09T08:12:03.066Z,58.70
2019-05-09T08:17:05.730Z,58.40
2019-05-09T08:22:08.474Z,59.10
2019-05-09T08:27:11.206Z,58.40
2019-05-09T08:32:33.463Z,58.20
2019-05-09T08:37:38.809Z,57.40
2019-05-09T08:42:40.575Z,57.90
2019-05-09T08:47:43.316Z,57.90
2019-05-09T08:52:48.068Z,57.70
2019-05-09T08:57:50.418Z,59.00
2019-05-09T09:02:53.089Z,59.40
2019-05-09T09:07:57.869Z,58.20
2019-05-09T09:13:02.314Z,57.50
2019-05-09T09:18:05.111Z,57.80
2019-05-09T09:23:08.940Z,58.00
2019-05-09T09:28:11.982Z,57.60
2019-05-09T09:33:14.652Z,54.60
2019-05-09T09:38:17.806Z,54.30
2019-05-09T09:43:20.614Z,53.60
2019-05-09T09:48:23.334Z,55.20
2019-05-09T09:53:27.864Z,53.90
2019-05-09T09:58:30.640Z,50.90
2019-05-09T10:03:33.374Z,52.20
2019-05-09T10:08:39.218Z,51.10
2019-05-09T10:13:40.631Z,51.30
2019-05-09T10:18:43.373Z,51.00
2019-05-09T10:23:48.158Z,50.50
2019-05-09T10:28:50.426Z,51.30
2019-05-09T10:33:53.082Z,52.70
2019-05-09T10:38:58.201Z,53.60
2019-05-09T10:44:00.122Z,54.90
2019-05-09T10:49:02.858Z,54.20
2019-05-09T10:54:07.842Z,58.10
2019-05-09T10:59:10.355Z,58.40
2019-05-09T11:04:13.458Z,58.60
2019-05-09T11:09:18.285Z,58.70
2019-05-09T11:14:32.174Z,59.00
2019-05-09T11:19:24.947Z,59.10
2019-05-09T11:24:41.132Z,58.80
2019-05-09T11:29:32.138Z,58.70
2019-05-09T11:34:37.427Z,59.30
2019-05-09T11:39:42.194Z,57.70
2019-05-09T11:44:43.656Z,57.60
2019-05-09T11:49:48.063Z,57.30
2019-05-09T11:54:50.755Z,57.00
2019-05-09T11:59:53.403Z,57.70
2019-05-09T12:04:56.059Z,58.30
2019-05-09T12:09:59.060Z,58.30
2019-05-09T12:15:02.363Z,57.70
2019-05-09T12:20:10.609Z,55.70
2019-05-09T12:25:10.373Z,54.20
2019-05-09T12:30:13.223Z,52.20
2019-05-09T12:35:15.881Z,51.10
2019-05-09T12:40:20.161Z,52.00
2019-05-09T12:45:23.020Z,52.80
2019-05-09T12:50:25.684Z,53.20
2019-05-09T12:55:28.352Z,53.70
2019-05-09T13:00:31.092Z,53.40
2019-05-09T13:05:34.156Z,50.50
2019-05-09T13:10:37.875Z,50.20
2019-05-09T13:15:40.665Z,47.70
2019-05-09T13:20:43.309Z,47.70
2019-05-09T13:25:50.219Z,45.30
2019-05-09T13:30:50.443Z,46.70
2019-05-09T13:35:53.510Z,44.60
2019-05-09T13:40:58.427Z,44.10
2019-05-09T13:46:00.552Z,47.90
2019-05-09T13:51:03.212Z,46.30
2019-05-09T13:56:08.386Z,47.90
2019-05-09T14:01:10.461Z,43.10
2019-05-09T14:06:13.188Z,41.10
2019-05-09T14:11:19.042Z,42.70
2019-05-09T14:16:22.322Z,43.70
2019-05-09T14:21:24.724Z,43.80
2019-05-09T14:26:27.819Z,44.30
2019-05-09T14:31:32.530Z,46.20
2019-05-09T14:36:35.119Z,46.20
2019-05-09T14:41:39.090Z,45.80
2019-05-09T14:46:43.018Z,45.60
2019-05-09T14:51:45.858Z,45.80
2019-05-09T14:56:48.749Z,46.30
2019-05-09T15:01:51.475Z,46.20
2019-05-09T15:06:54.553Z,46.80
2019-05-09T15:11:58.433Z,46.70
2019-05-09T15:17:01.427Z,47.10
2019-05-09T15:22:04.154Z,46.60
2019-05-09T15:27:06.968Z,48.80
2019-05-09T15:32:12.172Z,52.70
2019-05-09T15:37:14.187Z,54.50
2019-05-09T15:42:18.242Z,56.70
2019-05-09T15:47:21.291Z,61.10
2019-05-09T15:52:23.953Z,64.30
2019-05-09T15:57:27.533Z,66.70
2019-05-09T16:02:33.804Z,67.50
2019-05-09T16:07:34.733Z,67.40
2019-05-09T16:12:38.367Z,65.70
2019-05-09T16:17:41.462Z,65.40
2019-05-09T16:22:44.116Z,65.90
2019-05-09T16:27:48.439Z,65.90
2019-05-09T16:32:51.455Z,65.80
2019-05-09T16:38:02.783Z,65.20
2019-05-09T16:42:58.601Z,63.60
2019-05-09T16:48:01.333Z,66.10
2019-05-09T16:53:04.137Z,67.40
2019-05-09T16:58:08.624Z,67.20
2019-05-09T17:03:11.361Z,66.70
2019-05-09T17:08:14.234Z,66.20
2019-05-09T17:13:18.390Z,63.30
2019-05-09T17:18:21.578Z,65.00
2019-05-09T17:23:24.312Z,65.70
2019-05-09T17:28:28.481Z,66.40
2019-05-09T17:33:31.286Z,67.30
2019-05-09T17:38:33.998Z,67.00
2019-05-09T17:43:38.403Z,66.60
2019-05-09T17:48:41.209Z,68.10
2019-05-09T17:53:43.951Z,67.60
2019-05-09T17:58:48.527Z,67.20
2019-05-09T18:03:51.066Z,68.10
2019-05-09T18:08:53.811Z,68.00
2019-05-09T18:13:56.538Z,67.50
2019-05-09T18:19:00.479Z,66.90
2019-05-09T18:24:03.195Z,67.50
2019-05-09T18:29:06.056Z,66.10
2019-05-09T18:34:09.588Z,66.10
2019-05-09T18:39:12.319Z,65.90
2019-05-09T18:44:15.003Z,66.30
2019-05-09T18:49:17.734Z,66.40
2019-05-09T18:54:24.459Z,65.80
2019-05-09T18:59:27.155Z,65.40
2019-05-09T19:04:29.881Z,63.50
2019-05-09T19:09:32.921Z,64.40
2019-05-09T19:14:35.585Z,64.70
2019-05-09T19:19:38.268Z,64.80
2019-05-09T19:24:41.375Z,64.10
2019-05-09T19:29:44.704Z,63.80
2019-05-09T19:34:47.691Z,62.30
2019-05-09T19:39:50.438Z,60.60
2019-05-09T19:44:53.105Z,60.80
2019-05-09T19:49:55.829Z,60.70
2019-05-09T19:54:58.540Z,61.90
2019-05-09T20:00:01.276Z,60.70
2019-05-09T20:05:06.213Z,61.40
2019-05-09T20:10:09.769Z,62.00
2019-05-09T20:15:12.968Z,61.70
2019-05-09T20:20:15.683Z,62.50
2019-05-09T20:25:18.425Z,61.60
2019-05-09T20:30:21.190Z,61.60
2019-05-09T20:35:23.862Z,60.40
2019-05-09T20:40:26.595Z,60.40
2019-05-09T20:45:29.377Z,60.70
2019-05-09T20:50:32.451Z,60.50
2019-05-09T20:55:35.106Z,60.20
2019-05-09T21:00:37.775Z,60.70
2019-05-09T21:05:40.507Z,60.10
2019-05-09T21:10:43.260Z,60.20
2019-05-09T21:15:46.016Z,60.30
2019-05-09T21:21:09.591Z,60.00
2019-05-09T21:26:12.265Z,60.00
2019-05-09T21:31:15.329Z,60.00
2019-05-09T21:36:17.975Z,59.90
2019-05-09T21:41:21.027Z,60.00
2019-05-09T21:46:23.777Z,60.10
2019-05-09T21:51:26.494Z,60.30
2019-05-09T21:56:29.220Z,60.10
2019-05-09T22:01:32.020Z,60.30
2019-05-09T22:06:34.691Z,60.20
2019-05-09T22:11:38.228Z,60.70
2019-05-09T22:16:41.326Z,60.60
2019-05-09T22:21:43.988Z,60.50
2019-05-09T22:26:46.654Z,60.80
2019-05-09T22:31:49.385Z,60.60
2019-05-09T22:36:52.075Z,60.60
2019-05-09T22:41:54.779Z,60.90
2019-05-09T22:46:57.497Z,61.60
2019-05-09T22:52:00.153Z,60.80
2019-05-09T22:57:02.899Z,60.90
2019-05-09T23:02:06.965Z,61.10
2019-05-09T23:07:10.092Z,61.60
2019-05-09T23:12:12.817Z,61.10
2019-05-09T23:17:15.497Z,61.50
2019-05-09T23:22:18.229Z,61.80
2019-05-09T23:27:20.960Z,61.60
2019-05-09T23:32:23.704Z,61.90
2019-05-09T23:37:26.430Z,62.30
2019-05-09T23:42:29.104Z,62.40
2019-05-09T23:47:32.133Z,62.80
2019-05-09T23:52:34.864Z,63.00
2019-05-09T23:57:37.512Z,62.60
